Time;durP1;ratioP1;P1;durP2;ratioP2;P2;SDS_P1;SDS_P2;PMS_P1;PMS_P2;Temp;Humidity;BMP_temperature;BMP_pressure;BME280_temperature;BME280_humidity;BME280_pressure;Samples;Min_cycle;Max_cycle;Signal;HPM_P1;HPM_P2
2022/10/27 00:00:49;;;;;;;13.87;7.63;;;13.60;38.90;;;;;;5005543;28;20484;-62
2022/10/27 00:03:17;;;;;;;16.27;7.93;;;13.60;38.90;;;;;;5007149;28;20825;-62
2022/10/27 00:05:45;;;;;;;14.60;7.03;;;13.50;39.10;;;;;;4996798;28;20467;-61
2022/10/27 00:08:14;;;;;;;12.57;7.37;;;13.50;39.20;;;;;;4995404;28;20495;-62
2022/10/27 00:10:43;;;;;;;11.53;7.73;;;13.40;39.20;;;;;;5004472;28;20476;-60
2022/10/27 00:13:11;;;;;;;15.40;8.10;;;13.40;39.20;;;;;;5004257;28;20456;-60
2022/10/27 00:15:39;;;;;;;10.73;6.57;;;13.30;39.40;;;;;;5008300;28;20460;-62
2022/10/27 00:18:10;;;;;;;13.43;7.30;;;13.20;39.30;;;;;;5005542;28;20507;-60
2022/10/27 00:20:38;;;;;;;14.57;7.63;;;13.20;39.40;;;;;;5004662;28;20468;-60
2022/10/27 00:23:05;;;;;;;10.87;6.93;;;13.20;39.40;;;;;;5004434;28;20455;-62
2022/10/27 00:25:32;;;;;;;18.10;8.63;;;13.10;39.40;;;;;;5003892;28;20463;-61
2022/10/27 00:27:59;;;;;;;16.70;7.80;;;13.10;39.40;;;;;;5004815;28;21034;-61
2022/10/27 00:30:25;;;;;;;12.17;7.33;;;13.10;39.40;;;;;;5003530;28;20871;-60
2022/10/27 00:32:55;;;;;;;10.97;6.40;;;13.10;39.40;;;;;;5005761;28;20456;-62
2022/10/27 00:35:22;;;;;;;15.33;7.50;;;13.10;39.40;;;;;;5003503;28;20460;-60
2022/10/27 00:37:48;;;;;;;15.17;7.33;;;13.00;39.30;;;;;;5007487;28;20542;-60
2022/10/27 00:40:15;;;;;;;12.43;7.00;;;13.00;39.50;;;;;;5007206;28;20532;-60
2022/10/27 00:42:42;;;;;;;15.00;9.70;;;13.00;39.50;;;;;;5008016;28;20487;-60
2022/10/27 00:45:10;;;;;;;13.50;7.70;;;12.90;39.60;;;;;;5006436;28;20471;-60
2022/10/27 00:47:37;;;;;;;15.00;9.83;;;12.90;39.70;;;;;;5004379;28;20894;-60
2022/10/27 00:50:08;;;;;;;15.37;8.27;;;12.90;39.80;;;;;;5005418;28;20495;-61
2022/10/27 00:52:38;;;;;;;12.57;7.27;;;12.90;40.00;;;;;;5004736;28;20463;-61
2022/10/27 00:55:10;;;;;;;13.50;8.67;;;12.90;40.00;;;;;;5014217;23;20504;-62
2022/10/27 00:57:38;;;;;;;14.70;8.33;;;12.90;39.90;;;;;;5011440;28;20459;-63
2022/10/27 01:00:06;;;;;;;13.23;7.47;;;12.90;39.60;;;;;;4993686;28;20464;-62
2022/10/27 01:02:34;;;;;;;17.50;8.30;;;12.90;39.60;;;;;;5003082;28;20476;-63
2022/10/27 01:05:06;;;;;;;14.27;7.73;;;12.80;39.60;;;;;;4998697;28;20488;-64
2022/10/27 01:07:34;;;;;;;18.23;8.57;;;12.70;39.60;;;;;;5007049;28;20463;-63
2022/10/27 01:10:01;;;;;;;17.50;8.03;;;12.70;39.60;;;;;;5006381;28;20860;-63
2022/10/27 01:12:27;;;;;;;20.40;9.33;;;12.60;39.60;;;;;;5013598;28;20484;-63
2022/10/27 01:14:54;;;;;;;15.20;9.80;;;12.60;39.60;;;;;;5002681;28;20487;-63
2022/10/27 01:17:40;;;;;;;16.80;9.63;;;12.60;39.60;;;;;;4997575;28;20992;-63
2022/10/27 01:20:54;;;;;;;15.97;8.43;;;12.50;39.80;;;;;;5008921;28;20464;-63
2022/10/27 01:23:34;;;;;;;17.70;9.10;;;12.50;40.10;;;;;;4995277;28;20471;-63
2022/10/27 01:26:50;;;;;;;13.20;7.70;;;12.50;39.90;;;;;;5001123;28;20456;-62
2022/10/27 01:29:45;;;;;;;12.33;7.80;;;12.50;40.10;;;;;;4917955;29;20460;-62
2022/10/27 01:32:23;;;;;;;13.93;8.10;;;12.40;40.00;;;;;;4994808;28;20476;-63
2022/10/27 01:34:57;;;;;;;12.13;7.70;;;12.30;39.90;;;;;;5000584;28;20483;-62
2022/10/27 01:37:28;;;;;;;11.23;8.03;;;12.30;39.90;;;;;;5001472;28;20850;-63
2022/10/27 01:40:00;;;;;;;11.07;6.90;;;12.30;39.90;;;;;;5000428;28;20459;-62
2022/10/27 01:42:32;;;;;;;16.77;8.23;;;12.30;39.90;;;;;;5010946;28;20452;-62
2022/10/27 01:45:00;;;;;;;11.90;7.53;;;12.30;39.90;;;;;;5004136;28;20479;-62
2022/10/27 01:47:31;;;;;;;12.43;7.77;;;12.30;39.90;;;;;;5006659;28;20465;-62
2022/10/27 01:49:58;;;;;;;11.20;7.47;;;12.30;39.80;;;;;;5003523;28;20465;-62
2022/10/27 01:52:43;;;;;;;14.80;6.87;;;12.20;39.80;;;;;;5005896;28;20526;-62
2022/10/27 01:55:18;;;;;;;17.23;7.63;;;12.20;40.00;;;;;;4997164;28;20572;-62
2022/10/27 01:58:07;;;;;;;14.63;7.60;;;12.20;39.80;;;;;;5008678;28;20458;-62
2022/10/27 02:00:43;;;;;;;15.20;8.47;;;12.10;40.10;;;;;;5003759;28;20468;-62
2022/10/27 02:03:15;;;;;;;14.63;8.67;;;12.10;39.90;;;;;;5007915;28;20463;-62
2022/10/27 02:05:49;;;;;;;15.50;7.63;;;12.10;39.90;;;;;;5009736;28;20486;-62
2022/10/27 02:08:24;;;;;;;13.97;7.93;;;12.10;40.00;;;;;;4998967;28;20456;-63
2022/10/27 02:10:59;;;;;;;16.10;8.53;;;12.10;40.10;;;;;;5005417;28;20862;-63
2022/10/27 02:13:26;;;;;;;12.60;8.30;;;12.00;40.00;;;;;;5001430;28;20459;-63
2022/10/27 02:15:56;;;;;;;16.20;8.40;;;12.00;40.10;;;;;;5004547;28;20466;-63
2022/10/27 02:18:28;;;;;;;16.23;7.90;;;12.00;40.30;;;;;;5014760;28;20831;-63
2022/10/27 02:20:58;;;;;;;11.60;7.90;;;12.00;40.40;;;;;;5013468;28;20816;-63
2022/10/27 02:23:25;;;;;;;13.33;8.10;;;12.00;40.50;;;;;;5005732;28;20457;-63
2022/10/27 02:25:57;;;;;;;20.03;8.37;;;12.00;40.50;;;;;;5005660;28;20464;-63
2022/10/27 02:28:29;;;;;;;15.73;8.13;;;12.00;40.60;;;;;;5003057;28;20473;-63
2022/10/27 02:30:59;;;;;;;18.43;8.20;;;12.00;40.60;;;;;;4994745;28;20470;-63
2022/10/27 02:33:27;;;;;;;18.60;8.23;;;12.00;40.60;;;;;;5003051;28;20571;-63
2022/10/27 02:35:55;;;;;;;13.23;8.20;;;12.00;40.50;;;;;;5000436;28;20460;-63
2022/10/27 02:38:22;;;;;;;16.93;7.23;;;12.00;40.50;;;;;;5007005;28;20460;-62
2022/10/27 02:40:50;;;;;;;15.67;8.37;;;11.90;40.40;;;;;;5002466;28;20559;-63
2022/10/27 02:43:17;;;;;;;13.43;8.80;;;11.90;40.40;;;;;;5007068;28;21002;-63
2022/10/27 02:45:43;;;;;;;11.50;7.23;;;11.90;40.40;;;;;;4997296;28;20480;-63
2022/10/27 02:48:10;;;;;;;13.60;8.27;;;11.90;40.30;;;;;;5005032;28;20471;-64
2022/10/27 02:50:38;;;;;;;10.20;6.60;;;11.80;41.00;;;;;;5000169;28;20487;-63
2022/10/27 02:53:05;;;;;;;12.77;7.00;;;11.80;40.40;;;;;;5003497;28;20536;-63
2022/10/27 02:55:32;;;;;;;13.70;8.73;;;11.80;40.40;;;;;;5002031;28;20824;-63
2022/10/27 02:57:59;;;;;;;13.03;7.90;;;11.80;40.40;;;;;;5005049;28;20550;-63
2022/10/27 03:00:26;;;;;;;13.53;7.70;;;11.80;40.30;;;;;;5005292;28;20468;-63
2022/10/27 03:02:52;;;;;;;11.57;7.77;;;11.80;40.10;;;;;;4999224;28;20463;-63
2022/10/27 03:05:19;;;;;;;15.70;7.30;;;11.80;40.20;;;;;;5004470;28;20567;-63
2022/10/27 03:07:47;;;;;;;11.40;7.27;;;11.80;40.10;;;;;;4998266;28;20710;-63
2022/10/27 03:10:14;;;;;;;13.13;7.20;;;11.70;40.30;;;;;;5004305;28;20463;-63
2022/10/27 03:12:41;;;;;;;10.90;6.97;;;11.70;40.30;;;;;;4992403;28;20502;-63
2022/10/27 03:15:09;;;;;;;11.70;7.27;;;11.70;40.20;;;;;;5003290;28;20483;-63
2022/10/27 03:17:36;;;;;;;12.53;7.70;;;11.60;40.30;;;;;;5004233;28;20473;-63
2022/10/27 03:20:02;;;;;;;10.90;6.13;;;11.60;40.30;;;;;;5005315;28;20479;-63
2022/10/27 03:22:29;;;;;;;12.43;6.93;;;11.60;40.30;;;;;;5002616;28;20467;-63
2022/10/27 03:24:57;;;;;;;8.60;5.83;;;11.60;40.20;;;;;;4995875;28;20520;-63
2022/10/27 03:27:24;;;;;;;8.97;4.87;;;11.50;40.20;;;;;;4998985;28;20479;-63
2022/10/27 03:29:51;;;;;;;9.20;5.43;;;11.50;40.20;;;;;;4998378;28;20464;-63
2022/10/27 03:32:17;;;;;;;10.40;6.17;;;11.50;40.30;;;;;;5000809;28;20487;-63
2022/10/27 03:34:44;;;;;;;9.40;4.47;;;11.40;40.30;;;;;;5009434;28;20837;-63
2022/10/27 03:37:11;;;;;;;11.93;4.43;;;11.40;40.50;;;;;;4992118;28;20468;-63
2022/10/27 03:39:38;;;;;;;16.50;6.30;;;11.30;40.30;;;;;;5002205;28;20997;-63
2022/10/27 03:42:06;;;;;;;7.07;3.70;;;11.30;40.20;;;;;;4994586;28;20459;-63
2022/10/27 03:44:33;;;;;;;7.97;4.37;;;11.20;39.90;;;;;;5003158;28;20540;-63
2022/10/27 03:47:00;;;;;;;8.50;4.63;;;11.10;39.80;;;;;;5009024;28;21130;-63
2022/10/27 03:49:26;;;;;;;8.87;4.67;;;11.20;39.80;;;;;;5001176;28;20464;-63
2022/10/27 03:51:53;;;;;;;10.33;6.63;;;11.10;39.80;;;;;;5002219;28;20768;-63
2022/10/27 03:54:20;;;;;;;9.10;5.20;;;11.00;39.80;;;;;;5000610;28;20492;-63
2022/10/27 03:56:47;;;;;;;8.30;4.77;;;11.00;39.80;;;;;;5006480;28;20481;-63
2022/10/27 03:59:15;;;;;;;8.23;4.40;;;10.90;40.00;;;;;;5000453;28;20459;-63
2022/10/27 04:01:42;;;;;;;8.23;4.57;;;10.90;40.30;;;;;;4988263;28;20506;-63
2022/10/27 04:04:11;;;;;;;8.20;4.60;;;10.80;40.30;;;;;;4994138;28;20555;-64
2022/10/27 04:06:38;;;;;;;7.60;4.60;;;10.80;40.40;;;;;;5005976;28;20482;-64
2022/10/27 04:09:05;;;;;;;7.80;5.03;;;10.80;40.50;;;;;;4999921;28;20927;-64
2022/10/27 04:11:32;;;;;;;6.93;4.73;;;10.80;40.60;;;;;;4996868;28;20487;-64
2022/10/27 04:13:59;;;;;;;7.77;4.57;;;10.70;40.60;;;;;;5009903;28;20501;-64
2022/10/27 04:16:27;;;;;;;9.53;5.00;;;10.70;40.50;;;;;;5006544;28;20460;-63
2022/10/27 04:18:54;;;;;;;9.13;4.93;;;10.70;40.50;;;;;;4996120;28;20494;-63
2022/10/27 04:21:20;;;;;;;6.57;4.20;;;10.70;40.50;;;;;;4996230;28;20464;-63
2022/10/27 04:23:47;;;;;;;7.13;4.30;;;10.70;40.50;;;;;;4994577;28;20499;-63
2022/10/27 04:26:14;;;;;;;7.00;4.37;;;10.70;40.50;;;;;;5001876;28;20487;-64
2022/10/27 04:28:41;;;;;;;8.30;4.17;;;10.60;40.40;;;;;;5001698;28;20463;-63
2022/10/27 04:31:07;;;;;;;6.97;3.90;;;10.60;40.40;;;;;;5009331;28;20472;-63
2022/10/27 04:33:36;;;;;;;6.80;4.20;;;10.60;40.30;;;;;;5005840;28;20975;-63
2022/10/27 04:36:04;;;;;;;6.17;3.93;;;10.50;40.30;;;;;;4999356;28;20773;-64
2022/10/27 04:38:31;;;;;;;6.33;4.00;;;10.50;40.30;;;;;;5002369;28;20463;-61
2022/10/27 04:41:00;;;;;;;9.10;6.43;;;10.50;40.20;;;;;;4996114;28;21027;-63
2022/10/27 04:43:27;;;;;;;7.17;4.57;;;10.50;40.30;;;;;;4993273;28;21130;-62
2022/10/27 04:45:53;;;;;;;6.83;4.23;;;10.50;40.40;;;;;;4995867;28;20567;-66
2022/10/27 04:48:20;;;;;;;12.70;5.00;;;10.50;40.60;;;;;;4986138;28;20574;-66
2022/10/27 04:50:48;;;;;;;13.93;5.27;;;10.50;40.60;;;;;;4986522;28;20849;-65
2022/10/27 04:53:15;;;;;;;16.53;5.80;;;10.50;40.60;;;;;;4998925;28;20463;-66
2022/10/27 04:55:42;;;;;;;10.50;5.40;;;10.40;40.40;;;;;;4993346;28;20579;-70
2022/10/27 04:58:09;;;;;;;18.10;6.90;;;10.40;40.50;;;;;;5000450;28;20456;-71
2022/10/27 05:00:36;;;;;;;14.33;6.40;;;10.30;40.70;;;;;;5000875;28;21199;-69
2022/10/27 05:03:03;;;;;;;17.50;7.93;;;10.30;40.80;;;;;;4998751;28;20469;-69
2022/10/27 05:05:30;;;;;;;15.90;7.43;;;10.30;40.90;;;;;;4990741;28;21096;-72
2022/10/27 05:08:00;;;;;;;12.87;6.97;;;10.20;40.90;;;;;;4991477;28;20547;-69
2022/10/27 05:10:28;;;;;;;12.83;7.30;;;10.20;40.90;;;;;;5008305;28;20463;-69
2022/10/27 05:12:55;;;;;;;29.43;7.60;;;10.30;40.80;;;;;;4992463;28;20475;-68
2022/10/27 05:15:22;;;;;;;18.33;7.00;;;10.30;41.00;;;;;;5000546;28;20484;-68
2022/10/27 05:17:49;;;;;;;10.23;6.97;;;10.30;40.70;;;;;;4989854;28;20927;-68
2022/10/27 05:20:17;;;;;;;16.87;6.67;;;10.20;40.70;;;;;;4997359;28;20460;-68
2022/10/27 05:22:44;;;;;;;10.77;5.23;;;10.20;40.90;;;;;;5000296;28;20474;-68
2022/10/27 05:25:12;;;;;;;13.63;5.53;;;10.10;41.10;;;;;;5003894;28;21166;-69
2022/10/27 05:27:39;;;;;;;12.40;5.70;;;10.00;41.30;;;;;;5002241;28;20501;-68
2022/10/27 05:30:08;;;;;;;9.67;5.80;;;10.00;41.60;;;;;;5003893;28;20830;-68
2022/10/27 05:32:35;;;;;;;7.73;4.57;;;10.00;41.90;;;;;;5006315;28;20479;-68
2022/10/27 05:35:01;;;;;;;9.77;5.80;;;10.00;42.00;;;;;;4997524;28;20480;-68
2022/10/27 05:37:28;;;;;;;9.23;5.37;;;10.00;42.00;;;;;;5001398;28;20486;-67
2022/10/27 05:39:55;;;;;;;21.30;4.77;;;10.00;42.10;;;;;;5005632;28;20463;-67
2022/10/27 05:42:23;;;;;;;11.17;6.00;;;10.10;42.20;;;;;;5000557;28;20987;-68
2022/10/27 05:44:50;;;;;;;11.60;5.00;;;10.10;42.10;;;;;;5010484;28;20952;-67
2022/10/27 05:47:17;;;;;;;10.90;5.33;;;10.10;41.90;;;;;;4996182;28;20539;-69
2022/10/27 05:49:43;;;;;;;11.27;6.33;;;10.10;42.00;;;;;;5008281;28;20528;-69
2022/10/27 05:52:10;;;;;;;11.20;4.97;;;10.10;41.90;;;;;;5000938;28;20479;-70
2022/10/27 05:54:37;;;;;;;10.53;5.60;;;10.10;41.90;;;;;;4993543;28;20521;-72
2022/10/27 05:57:04;;;;;;;12.57;6.37;;;10.10;41.60;;;;;;4996874;28;20503;-76
2022/10/27 05:59:32;;;;;;;9.13;5.90;;;10.20;41.20;;;;;;4994153;28;20838;-74
2022/10/27 06:01:59;;;;;;;10.83;5.87;;;10.20;41.20;;;;;;5001387;28;20563;-72
2022/10/27 06:04:26;;;;;;;13.80;6.40;;;10.20;41.20;;;;;;4995218;28;20493;-71
2022/10/27 06:06:53;;;;;;;17.80;7.17;;;10.20;41.00;;;;;;5003420;28;20470;-70
2022/10/27 06:09:20;;;;;;;9.93;6.83;;;10.20;40.90;;;;;;5000728;28;20469;-72
2022/10/27 06:11:47;;;;;;;9.60;6.83;;;10.30;40.90;;;;;;4991642;28;20479;-67
2022/10/27 06:14:14;;;;;;;10.80;7.60;;;10.30;40.80;;;;;;5000352;28;20484;-67
2022/10/27 06:16:42;;;;;;;8.10;6.00;;;10.30;40.80;;;;;;4996498;28;20458;-68
2022/10/27 06:19:09;;;;;;;10.60;6.20;;;10.30;40.70;;;;;;4997968;28;20456;-69
2022/10/27 06:21:35;;;;;;;9.73;4.87;;;10.30;40.40;;;;;;4997370;28;20459;-67
2022/10/27 06:24:03;;;;;;;12.60;5.30;;;10.40;40.20;;;;;;5005818;28;20565;-67
2022/10/27 06:26:29;;;;;;;12.33;6.17;;;10.40;39.80;;;;;;4988252;28;20558;-66
2022/10/27 06:28:56;;;;;;;8.37;5.47;;;10.50;39.60;;;;;;5003962;28;20796;-62
2022/10/27 06:31:23;;;;;;;8.17;5.30;;;10.50;39.60;;;;;;4994745;28;20476;-67
2022/10/27 06:33:51;;;;;;;10.93;5.10;;;10.50;39.60;;;;;;5006613;28;20486;-66
2022/10/27 06:36:18;;;;;;;8.50;5.20;;;10.50;39.60;;;;;;5005301;28;20994;-64
2022/10/27 06:38:45;;;;;;;10.30;5.00;;;10.60;39.40;;;;;;4995221;28;20510;-62
2022/10/27 06:41:12;;;;;;;9.60;4.60;;;10.60;39.30;;;;;;5009919;28;20555;-66
2022/10/27 06:43:39;;;;;;;7.67;5.30;;;10.70;39.30;;;;;;5003132;28;20462;-64
2022/10/27 06:46:06;;;;;;;9.40;4.30;;;10.80;39.00;;;;;;5012730;28;20482;-64
2022/10/27 06:48:32;;;;;;;9.63;5.10;;;10.90;38.80;;;;;;5004325;28;20960;-64
2022/10/27 06:51:01;;;;;;;7.30;3.80;;;11.00;38.60;;;;;;5011375;28;20563;-67
2022/10/27 06:53:27;;;;;;;10.40;4.43;;;11.10;38.30;;;;;;5015791;28;20972;-65
2022/10/27 06:55:55;;;;;;;10.17;5.70;;;11.30;38.00;;;;;;5013126;28;20471;-65
2022/10/27 06:58:22;;;;;;;34.43;10.57;;;11.40;37.60;;;;;;5005997;28;20472;-66
2022/10/27 07:00:48;;;;;;;29.37;6.23;;;11.50;36.80;;;;;;5016725;28;20462;-67
2022/10/27 07:03:16;;;;;;;9.00;4.60;;;11.50;36.20;;;;;;5009391;28;20515;-67
2022/10/27 07:05:42;;;;;;;13.90;5.53;;;11.50;36.10;;;;;;5012771;28;20482;-66
2022/10/27 07:08:11;;;;;;;9.10;4.73;;;11.60;36.40;;;;;;4997211;28;20483;-70
2022/10/27 07:10:37;;;;;;;12.10;5.20;;;11.70;36.70;;;;;;5001770;28;20959;-68
2022/10/27 07:13:04;;;;;;;9.30;3.90;;;11.90;36.20;;;;;;4996088;28;20498;-68
2022/10/27 07:15:35;;;;;;;11.43;3.97;;;12.00;35.60;;;;;;5004014;28;20567;-67
2022/10/27 07:18:04;;;;;;;9.87;5.00;;;12.10;35.40;;;;;;4997391;28;20513;-66
2022/10/27 07:20:32;;;;;;;64.90;8.13;;;12.20;34.90;;;;;;5019313;28;20478;-66
2022/10/27 07:22:59;;;;;;;14.77;4.57;;;12.20;34.10;;;;;;5002092;28;20801;-66
2022/10/27 07:25:28;;;;;;;7.60;3.70;;;12.20;34.00;;;;;;5009761;28;20472;-66
2022/10/27 07:27:56;;;;;;;13.23;3.70;;;12.20;33.80;;;;;;5007610;28;20465;-65
2022/10/27 07:30:25;;;;;;;8.77;4.20;;;12.40;33.70;;;;;;5005652;28;20476;-66
2022/10/27 07:32:52;;;;;;;7.40;3.13;;;12.40;33.40;;;;;;4999495;28;20480;-65
2022/10/27 07:35:19;;;;;;;11.87;3.47;;;12.40;33.10;;;;;;5004257;28;20515;-64
2022/10/27 07:37:46;;;;;;;24.73;5.07;;;12.40;33.10;;;;;;5008569;28;20696;-65
2022/10/27 07:40:15;;;;;;;7.90;3.87;;;12.50;33.50;;;;;;5009160;28;20478;-66
2022/10/27 07:42:45;;;;;;;5.13;3.47;;;12.50;33.30;;;;;;5004415;28;20461;-65
2022/10/27 07:45:12;;;;;;;10.17;4.33;;;12.60;33.30;;;;;;5007467;28;20667;-65
2022/10/27 07:47:43;;;;;;;6.90;3.70;;;12.80;33.20;;;;;;4997789;28;20467;-64
2022/10/27 07:50:10;;;;;;;5.90;3.37;;;13.00;33.10;;;;;;4998059;28;20541;-63
2022/10/27 07:52:41;;;;;;;6.10;3.23;;;13.30;32.90;;;;;;5003378;28;20505;-64
2022/10/27 07:55:09;;;;;;;7.87;3.80;;;13.70;32.10;;;;;;4999295;28;20995;-64
2022/10/27 07:57:36;;;;;;;5.70;3.40;;;14.10;31.10;;;;;;5001670;28;21122;-65
2022/10/27 08:00:05;;;;;;;5.97;3.70;;;14.30;30.00;;;;;;5003512;28;20468;-62
2022/10/27 08:02:31;;;;;;;5.30;3.13;;;14.70;29.00;;;;;;5008697;28;20483;-66
2022/10/27 08:04:58;;;;;;;7.37;3.50;;;15.20;28.20;;;;;;5009680;28;20534;-66
2022/10/27 08:07:25;;;;;;;7.33;4.53;;;16.10;26.30;;;;;;5008590;28;20467;-63
2022/10/27 08:09:52;;;;;;;8.03;5.07;;;16.90;24.30;;;;;;5003296;28;20456;-66
2022/10/27 08:12:19;;;;;;;8.20;6.17;;;17.60;21.60;;;;;;4996363;28;20479;-62
2022/10/27 08:14:46;;;;;;;9.80;6.40;;;18.20;20.00;;;;;;5003463;28;20611;-63
2022/10/27 08:17:15;;;;;;;9.23;5.27;;;18.90;18.90;;;;;;5007200;28;20491;-67
2022/10/27 08:19:42;;;;;;;9.60;7.13;;;19.80;17.20;;;;;;5007335;28;20460;-62
2022/10/27 08:22:09;;;;;;;11.43;7.47;;;20.30;15.90;;;;;;5006154;28;20463;-65
2022/10/27 08:24:35;;;;;;;8.90;6.60;;;20.70;14.90;;;;;;5000816;28;20546;-65
2022/10/27 08:27:02;;;;;;;10.57;6.87;;;21.10;13.90;;;;;;5001508;28;20460;-63
2022/10/27 08:29:29;;;;;;;10.17;6.30;;;21.30;12.80;;;;;;5002000;28;20464;-62
2022/10/27 08:31:56;;;;;;;8.10;5.47;;;21.80;12.30;;;;;;5001382;28;20480;-65
2022/10/27 08:34:24;;;;;;;10.40;5.80;;;22.00;11.50;;;;;;5004788;28;20632;-62
2022/10/27 08:36:51;;;;;;;8.57;4.80;;;21.80;11.10;;;;;;5005833;28;20532;-63
2022/10/27 08:39:18;;;;;;;7.07;5.43;;;21.40;11.70;;;;;;4995006;28;20555;-64
2022/10/27 08:41:55;;;;;;;6.60;4.40;;;21.50;12.50;;;;;;5004057;28;20543;-65
2022/10/27 08:44:27;;;;;;;6.30;4.20;;;22.10;12.40;;;;;;4998093;28;20821;-64
2022/10/27 08:46:56;;;;;;;10.70;4.80;;;22.40;10.90;;;;;;5007329;28;20932;-62
2022/10/27 08:49:33;;;;;;;9.23;4.07;;;22.60;10.30;;;;;;5000284;28;20547;-65
2022/10/27 08:52:09;;;;;;;6.00;4.00;;;22.40;10.10;;;;;;5002253;28;20456;-64
2022/10/27 08:54:36;;;;;;;5.90;3.80;;;22.10;10.80;;;;;;4996191;28;20816;-66
2022/10/27 08:57:05;;;;;;;7.33;3.83;;;21.60;11.20;;;;;;5004120;28;20471;-66
2022/10/27 08:59:33;;;;;;;5.13;3.40;;;21.50;11.80;;;;;;5001145;28;20479;-64
2022/10/27 09:02:13;;;;;;;8.43;3.80;;;21.70;12.10;;;;;;5000105;28;20736;-63
2022/10/27 09:04:55;;;;;;;6.10;4.40;;;22.30;11.40;;;;;;5004769;28;21209;-65
2022/10/27 09:07:30;;;;;;;6.50;4.93;;;22.80;10.40;;;;;;4996254;28;20474;-66
2022/10/27 09:10:00;;;;;;;9.50;6.87;;;23.60;10.40;;;;;;5007214;28;20460;-66
2022/10/27 09:12:56;;;;;;;8.13;6.30;;;24.60;8.70;;;;;;4999882;28;20820;-65
2022/10/27 09:15:38;;;;;;;6.97;5.03;;;25.50;6.80;;;;;;4991201;28;20491;-64
2022/10/27 09:18:11;;;;;;;7.50;5.13;;;26.90;5.00;;;;;;5006973;28;20475;-64
2022/10/27 09:20:44;;;;;;;7.57;4.60;;;28.30;2.80;;;;;;4994224;28;20983;-64
2022/10/27 09:23:14;;;;;;;5.90;4.20;;;28.70;1.90;;;;;;4996400;28;20462;-72
2022/10/27 09:25:42;;;;;;;8.40;5.23;;;29.20;1.60;;;;;;4999569;28;21002;-63
2022/10/27 09:28:17;;;;;;;6.57;4.77;;;29.40;1.00;;;;;;5005979;28;20463;-64
2022/10/27 09:30:48;;;;;;;7.33;5.17;;;29.30;1.00;;;;;;5004733;28;20465;-61
2022/10/27 09:33:19;;;;;;;7.87;5.27;;;29.50;1.00;;;;;;5001430;28;20595;-63
2022/10/27 09:35:49;;;;;;;8.50;4.70;;;29.90;1.00;;;;;;4999065;28;21051;-63
2022/10/27 09:38:20;;;;;;;6.37;4.80;;;30.30;1.00;;;;;;4997863;28;20467;-63
2022/10/27 09:40:47;;;;;;;8.70;5.50;;;30.50;1.00;;;;;;5000971;28;20476;-63
2022/10/27 09:43:14;;;;;;;7.53;5.33;;;30.70;1.00;;;;;;4996201;28;20461;-65
2022/10/27 09:45:42;;;;;;;6.30;4.23;;;30.50;1.00;;;;;;4991748;28;20488;-65
2022/10/27 09:48:17;;;;;;;7.50;5.07;;;30.00;1.00;;;;;;4997885;28;20801;-62
2022/10/27 09:50:49;;;;;;;6.97;5.10;;;29.70;1.00;;;;;;4997464;28;20471;-65
2022/10/27 09:53:39;;;;;;;7.80;4.07;;;29.50;1.00;;;;;;4995414;28;20485;-65
2022/10/27 09:56:08;;;;;;;7.07;4.57;;;29.00;1.20;;;;;;5004246;28;20452;-64
2022/10/27 09:58:42;;;;;;;7.50;4.50;;;28.40;2.10;;;;;;5000041;28;20520;-65
2022/10/27 10:01:10;;;;;;;9.63;4.27;;;28.00;3.00;;;;;;4990921;28;20520;-65
2022/10/27 10:03:38;;;;;;;7.60;5.50;;;27.80;3.80;;;;;;5001114;28;20876;-66
2022/10/27 10:06:24;;;;;;;7.00;4.93;;;27.70;4.20;;;;;;5000167;28;20973;-66
2022/10/27 10:08:51;;;;;;;9.50;4.60;;;27.50;4.90;;;;;;4992348;28;20460;-66
2022/10/27 10:11:21;;;;;;;6.43;4.43;;;27.30;5.30;;;;;;4996117;28;20542;-66
2022/10/27 10:13:59;;;;;;;9.00;5.00;;;27.00;5.30;;;;;;5003280;28;20486;-70
2022/10/27 10:16:28;;;;;;;9.30;5.60;;;26.60;5.20;;;;;;5002215;28;20468;-70
2022/10/27 10:19:03;;;;;;;5.67;4.07;;;26.50;5.70;;;;;;5003333;28;20470;-71
2022/10/27 10:21:46;;;;;;;8.43;4.27;;;26.40;5.70;;;;;;5010977;28;20467;-71
2022/10/27 10:24:17;;;;;;;8.83;4.27;;;26.20;6.30;;;;;;4998289;28;20480;-70
2022/10/27 10:26:47;;;;;;;7.13;4.30;;;26.10;7.20;;;;;;4999540;28;20467;-73
2022/10/27 10:29:26;;;;;;;8.60;4.10;;;26.20;7.00;;;;;;4989825;28;20465;-70
2022/10/27 10:32:04;;;;;;;6.83;4.37;;;26.30;7.40;;;;;;5010815;28;20725;-70
2022/10/27 10:34:33;;;;;;;7.47;3.97;;;26.60;6.80;;;;;;4999913;28;20484;-72
2022/10/27 10:37:02;;;;;;;6.00;3.77;;;26.80;6.40;;;;;;5005472;28;21026;-72
2022/10/27 10:39:32;;;;;;;6.27;4.40;;;27.00;7.40;;;;;;4997824;28;20842;-76
2022/10/27 10:42:15;;;;;;;7.93;3.77;;;27.30;6.10;;;;;;4993355;28;20893;-74
2022/10/27 10:44:41;;;;;;;7.63;4.13;;;27.60;5.20;;;;;;5004245;28;20497;-75
2022/10/27 10:47:23;;;;;;;9.70;4.10;;;27.90;4.80;;;;;;5005739;28;20802;-73
2022/10/27 10:49:53;;;;;;;6.80;4.50;;;28.20;5.10;;;;;;4999383;28;20558;-73
2022/10/27 10:52:24;;;;;;;10.37;4.80;;;28.50;4.50;;;;;;5009060;28;20704;-69
2022/10/27 10:54:52;;;;;;;6.90;4.13;;;28.80;4.50;;;;;;4996954;28;20585;-85
2022/10/27 10:57:26;;;;;;;6.97;4.10;;;29.10;3.60;;;;;;5007489;28;20464;-76
2022/10/27 10:59:54;;;;;;;5.67;4.20;;;29.40;3.10;;;;;;4998307;28;20466;-78
2022/10/27 11:02:27;;;;;;;8.37;4.70;;;29.60;2.60;;;;;;4998702;28;20518;-77
2022/10/27 11:04:54;;;;;;;6.23;4.57;;;29.80;2.50;;;;;;5000927;28;20476;-74
2022/10/27 11:07:25;;;;;;;7.93;4.40;;;30.00;2.50;;;;;;5013043;28;20454;-79
2022/10/27 11:09:58;;;;;;;7.47;4.73;;;30.10;1.30;;;;;;4996242;28;20471;-77
2022/10/27 11:12:33;;;;;;;6.50;4.50;;;29.90;1.10;;;;;;4989243;28;20926;-73
2022/10/27 11:15:06;;;;;;;7.63;4.30;;;29.90;1.70;;;;;;5006383;28;20486;-79
2022/10/27 11:17:35;;;;;;;7.97;3.77;;;30.30;2.10;;;;;;4992216;28;20479;-73
2022/10/27 11:20:05;;;;;;;6.70;3.97;;;30.60;1.40;;;;;;4997073;28;20545;-72
2022/10/27 11:22:36;;;;;;;6.97;3.83;;;30.70;1.00;;;;;;5008238;28;20547;-76
2022/10/27 11:25:07;;;;;;;8.50;3.80;;;30.90;1.00;;;;;;5004105;28;20476;-73
2022/10/27 11:27:41;;;;;;;6.53;3.60;;;30.90;1.00;;;;;;5000519;28;20855;-78
2022/10/27 11:30:19;;;;;;;9.37;4.77;;;31.00;1.00;;;;;;5005245;28;20494;-77
2022/10/27 11:32:57;;;;;;;5.97;3.80;;;31.00;1.00;;;;;;5004949;28;20973;-83
2022/10/27 11:35:28;;;;;;;8.17;3.77;;;31.10;1.10;;;;;;5013364;28;21020;-79
2022/10/27 11:38:05;;;;;;;7.27;3.50;;;31.40;1.00;;;;;;5005580;28;20455;-73
2022/10/27 11:40:44;;;;;;;6.83;4.23;;;31.80;1.00;;;;;;5004249;28;20451;-68
2022/10/27 11:43:15;;;;;;;8.57;3.67;;;31.90;1.00;;;;;;4999847;28;20586;-67
2022/10/27 11:45:50;;;;;;;7.30;3.90;;;32.10;1.00;;;;;;5007109;28;20479;-70
2022/10/27 11:48:22;;;;;;;6.30;3.40;;;31.90;1.00;;;;;;5003160;28;20459;-68
2022/10/27 11:50:53;;;;;;;10.60;4.50;;;31.70;1.00;;;;;;5003220;28;20460;-70
2022/10/27 11:53:22;;;;;;;8.53;3.90;;;31.50;1.00;;;;;;4999939;28;20460;-69
2022/10/27 11:56:19;;;;;;;6.07;3.40;;;31.50;1.00;;;;;;4998351;28;20477;-69
2022/10/27 11:58:56;;;;;;;8.30;3.80;;;31.30;1.00;;;;;;4998692;28;20464;-69
2022/10/27 12:01:37;;;;;;;6.73;3.57;;;31.20;1.00;;;;;;5010510;28;20814;-65
2022/10/27 12:04:21;;;;;;;6.77;3.97;;;31.00;1.00;;;;;;5001178;28;20479;-67
2022/10/27 12:06:56;;;;;;;5.50;3.07;;;30.80;1.20;;;;;;5011659;28;20985;-67
2022/10/27 12:09:37;;;;;;;6.73;3.90;;;30.80;2.10;;;;;;5003045;28;20459;-67
2022/10/27 12:12:12;;;;;;;8.83;3.97;;;30.90;1.20;;;;;;5002491;28;20472;-66
2022/10/27 12:14:47;;;;;;;7.37;3.83;;;30.70;1.50;;;;;;5001778;28;20547;-64
2022/10/27 12:17:21;;;;;;;7.33;3.93;;;30.70;2.60;;;;;;4997931;28;20462;-69
2022/10/27 12:19:51;;;;;;;6.97;3.53;;;30.70;2.00;;;;;;4994148;28;20466;-67
2022/10/27 12:22:27;;;;;;;7.93;3.87;;;30.70;2.40;;;;;;4992193;28;20467;-70
2022/10/27 12:25:00;;;;;;;6.40;3.67;;;30.60;2.40;;;;;;5002040;28;20522;-69
2022/10/27 12:27:32;;;;;;;7.07;3.77;;;30.60;2.50;;;;;;5007213;28;20994;-68
2022/10/27 12:30:03;;;;;;;9.30;3.03;;;30.30;2.10;;;;;;5001144;28;20522;-67
2022/10/27 12:32:34;;;;;;;9.00;4.30;;;29.80;2.80;;;;;;4997656;28;20519;-66
2022/10/27 12:35:08;;;;;;;6.00;2.90;;;29.70;3.80;;;;;;4998649;28;20488;-70
2022/10/27 12:37:43;;;;;;;9.10;3.70;;;29.50;3.80;;;;;;5014393;28;20550;-69
2022/10/27 12:40:20;;;;;;;8.63;3.60;;;29.30;4.40;;;;;;5008090;28;20741;-67
2022/10/27 12:42:56;;;;;;;9.83;3.83;;;29.20;4.90;;;;;;5000128;28;20458;-63
2022/10/27 12:45:34;;;;;;;7.40;3.63;;;29.00;5.30;;;;;;5004842;28;20468;-65
2022/10/27 12:48:09;;;;;;;7.67;3.07;;;28.90;5.20;;;;;;4999617;28;20796;-68
2022/10/27 12:50:44;;;;;;;6.90;4.10;;;28.70;5.80;;;;;;5023706;28;20477;-68
2022/10/27 12:53:25;;;;;;;7.40;3.83;;;28.30;5.50;;;;;;5010878;28;20900;-67
2022/10/27 12:55:58;;;;;;;8.63;3.73;;;27.80;6.20;;;;;;5015124;23;20495;-67
2022/10/27 12:58:36;;;;;;;6.90;3.77;;;27.10;7.00;;;;;;4994598;28;20460;-66
2022/10/27 13:01:15;;;;;;;9.10;4.47;;;26.70;7.90;;;;;;4997947;28;20560;-66